首页
METAR-TAF:

METAR-TAF

机场 :

Laupheim, 德国

纬度: 48-13N, 经度: 009-55E, 海拔: 538米

当前天气观测

该预报发布于20分钟前的21:20 UTC
静风
温度 7°C
湿度 66%
气压 1016 hPa
能见度10公里或以上
少量云层高于6000英尺

METAR: ETHL 282120Z 00000KT 9999 FEW060 07/01 Q1016 BLU+

时间: 22:40 (21:40 UTC)


TAF: 丢失

超过4000个机场的气象观测和天气预报(METAR&TAF报告)。

可查询的气象台以黄色和红色小点在地图上表示。

将鼠标移到小点上方,可查看气象台名称。

然后点击查看天气观测和预报。

如需切换地图:点击带黑十字的绿色按钮放大地图;点击带横线的绿色按钮缩小地图;或者点击绿色箭头查看邻近地区的地图。


METAR-TAF: